Castelo, Brazil
Current Conditions -  °F | °C
As of 1:00 AM on Saturday 25 Oct 2014 (Local Time) from SBVT Reporting Station
Broken Clouds Broken Clouds  
Wind Chill: 72°   Ceiling: 4000
Heat Index: 72°   Visibility: 6mi
Dew Point: 61°   Wind: 5mph
Humidity: 69%   Direction: 10°N
Pressure: 29.97"   Gusts: NA
Location:  20.6°S, 41.18°W
Report Text: SBVT 250300Z 01004KT 9999 BKN040 22/16 Q1015
Loading
Personal Weather Stations






























Interactive Weather Map
Tropical Storm Tracking
New forecast layout! Learn more

10-Day Weather Forecast

Advertisements
Track Severe Weather on mobile